createdAt,value
2023-04-09T00:01:35.618Z,101309.56
2023-04-09T00:04:06.239Z,101312.31
2023-04-09T00:06:36.574Z,101326.75
2023-04-09T00:09:06.999Z,101329.44
2023-04-09T00:11:37.829Z,101333.34
2023-04-09T00:14:08.124Z,101333.78
2023-04-09T00:16:38.486Z,101340.84
2023-04-09T00:19:08.839Z,101350.56
2023-04-09T00:21:39.497Z,101350.34
2023-04-09T00:24:09.875Z,101360.69
2023-04-09T00:26:40.310Z,101357.16
2023-04-09T00:29:10.579Z,101359.56
2023-04-09T00:31:40.918Z,101362.06
2023-04-09T00:34:11.290Z,101365.31
2023-04-09T00:36:41.655Z,101377.91
2023-04-09T00:39:12.176Z,101381.34
2023-04-09T00:41:42.650Z,101377.91
2023-04-09T00:44:13.617Z,101379.63
2023-04-09T00:46:44.087Z,101380.38
2023-04-09T00:49:14.979Z,101387.66
2023-04-09T00:51:47.837Z,101387.66
2023-04-09T00:54:18.649Z,101399.53
2023-04-09T00:56:49.587Z,101390.63
2023-04-09T00:59:20.023Z,101388.88
2023-04-09T01:01:50.362Z,101399.59
2023-04-09T01:04:21.221Z,101408.69
2023-04-09T01:07:01.619Z,101400.47
2023-04-09T01:09:39.786Z,101403.38
2023-04-09T01:13:02.520Z,101409.66
2023-04-09T01:15:40.933Z,101404.94
2023-04-09T01:18:25.758Z,101408.41
2023-04-09T01:21:13.918Z,101427.97
2023-04-09T01:23:58.020Z,101419.25
2023-04-09T01:26:54.314Z,101413.09
2023-04-09T01:29:29.545Z,101417.69
2023-04-09T01:32:02.110Z,101422.09
2023-04-09T01:34:34.397Z,101418.25
2023-04-09T01:37:06.450Z,101426.13
2023-04-09T01:39:39.403Z,101421.84
2023-04-09T01:42:13.562Z,101430.47
2023-04-09T01:44:45.303Z,101432.91
2023-04-09T01:47:16.325Z,101425.16
2023-04-09T01:49:47.465Z,101423.09
2023-04-09T01:52:17.919Z,101418.22
2023-04-09T01:54:48.564Z,101418.00
2023-04-09T01:57:18.902Z,101420.31
2023-04-09T01:59:49.329Z,101418.47
2023-04-09T02:02:27.427Z,101412.81
2023-04-09T02:05:10.481Z,101414.63
2023-04-09T02:07:45.663Z,101409.59
2023-04-09T02:10:19.786Z,101414.00
2023-04-09T02:12:56.115Z,101416.44
2023-04-09T02:15:27.589Z,101411.59
2023-04-09T02:17:58.181Z,101417.28
2023-04-09T02:20:28.322Z,101419.66
2023-04-09T02:22:58.551Z,101420.53
2023-04-09T02:25:29.843Z,101414.50
2023-04-09T02:28:00.229Z,101416.28
2023-04-09T02:30:35.757Z,101415.34
2023-04-09T02:33:06.121Z,101408.56
2023-04-09T02:35:36.873Z,101415.22
2023-04-09T02:38:07.354Z,101416.38
2023-04-09T02:40:38.597Z,101414.25
2023-04-09T02:43:09.300Z,101416.91
2023-04-09T02:45:39.627Z,101407.28
2023-04-09T02:48:10.060Z,101418.66
2023-04-09T02:50:40.462Z,101420.75
2023-04-09T02:53:11.015Z,101414.09
2023-04-09T02:55:41.145Z,101406.13
2023-04-09T02:58:11.466Z,101411.34
2023-04-09T03:00:41.973Z,101411.06
2023-04-09T03:03:12.484Z,101402.06
2023-04-09T03:05:43.354Z,101405.34
2023-04-09T03:08:13.911Z,101409.63
2023-04-09T03:10:44.457Z,101409.34
2023-04-09T03:13:14.851Z,101402.50
2023-04-09T03:15:45.148Z,101406.56
2023-04-09T03:18:15.562Z,101400.69
2023-04-09T03:20:45.925Z,101404.78
2023-04-09T03:23:18.354Z,101407.19
2023-04-09T03:25:50.562Z,101412.78
2023-04-09T03:28:22.531Z,101400.72
2023-04-09T03:30:55.965Z,101404.13
2023-04-09T03:33:27.973Z,101402.34
2023-04-09T03:36:00.959Z,101397.63
2023-04-09T03:38:51.949Z,101393.06
2023-04-09T05:26:20.200Z,101226.25
2023-04-09T05:28:57.904Z,101220.41
2023-04-09T05:31:28.772Z,101219.91
2023-04-09T05:34:12.196Z,101211.13
2023-04-09T05:36:50.966Z,101202.56
2023-04-09T05:39:24.148Z,101203.66
2023-04-09T05:41:55.404Z,101200.75
2023-04-09T05:44:25.657Z,101192.16
2023-04-09T05:47:03.477Z,101188.56
2023-04-09T05:49:40.932Z,101176.81
2023-04-09T05:52:15.341Z,101166.00
2023-04-09T05:54:46.130Z,101162.81
2023-04-09T05:57:20.758Z,101160.03
2023-04-09T05:59:57.964Z,101156.91
2023-04-09T06:02:29.057Z,101146.16
2023-04-09T06:04:59.758Z,101145.50
2023-04-09T06:07:30.380Z,101144.81
2023-04-09T06:10:00.641Z,101135.06
2023-04-09T06:12:30.833Z,101129.22
2023-04-09T06:15:01.054Z,101123.34
2023-04-09T06:17:32.330Z,101120.34
2023-04-09T06:20:02.796Z,101109.22
2023-04-09T06:22:34.153Z,101103.22
2023-04-09T06:25:04.425Z,101097.03
2023-04-09T06:27:34.750Z,101085.16
2023-04-09T06:30:05.031Z,101084.25
2023-04-09T06:32:46.833Z,101085.88
2023-04-09T06:35:21.610Z,101077.66
2023-04-09T06:37:52.050Z,101075.72
2023-04-09T06:40:23.240Z,101058.72
2023-04-09T06:42:53.845Z,101055.00
2023-04-09T06:45:30.662Z,101052.75
2023-04-09T06:48:01.263Z,101053.34
2023-04-09T06:50:31.725Z,101047.56
2023-04-09T06:53:03.789Z,101036.00
2023-04-09T06:55:34.853Z,101028.25
2023-04-09T06:58:05.234Z,101020.50
2023-04-09T07:00:35.616Z,101014.72
2023-04-09T07:03:07.290Z,101005.00
2023-04-09T07:05:38.934Z,100988.69
2023-04-09T07:08:09.739Z,100990.38
2023-04-09T07:10:39.976Z,100990.09
2023-04-09T07:13:10.457Z,100986.66
2023-04-09T07:15:42.506Z,100983.22
2023-04-09T07:18:13.314Z,100980.66
2023-04-09T07:20:43.473Z,100979.41
2023-04-09T07:23:14.148Z,100978.56
2023-04-09T07:25:44.845Z,100967.94
2023-04-09T07:28:15.339Z,100969.22
2023-04-09T07:30:46.928Z,100958.81
2023-04-09T07:33:18.782Z,100961.84
2023-04-09T07:35:49.448Z,100959.50
2023-04-09T07:38:20.016Z,100960.56
2023-04-09T07:40:50.768Z,100955.00
2023-04-09T07:43:22.587Z,100943.88
2023-04-09T07:45:55.734Z,100948.28
2023-04-09T07:48:26.282Z,100936.38
2023-04-09T07:50:56.708Z,100936.47
2023-04-09T07:53:27.075Z,100928.16
2023-04-09T07:55:57.494Z,100915.16
2023-04-09T07:58:27.620Z,100913.22
2023-04-09T08:00:57.999Z,100905.44
2023-04-09T08:03:28.807Z,100905.81
2023-04-09T08:05:59.369Z,100906.97
2023-04-09T08:08:30.053Z,100903.25
2023-04-09T08:11:00.412Z,100902.31
2023-04-09T08:13:30.743Z,100888.22
2023-04-09T08:16:04.635Z,100891.69
2023-04-09T08:18:34.986Z,100881.81
2023-04-09T08:21:08.650Z,100878.47
2023-04-09T08:23:40.228Z,100873.03
2023-04-09T08:26:10.614Z,100867.47
2023-04-09T08:28:40.923Z,100874.22
2023-04-09T08:31:13.620Z,100875.00
2023-04-09T08:33:45.376Z,100863.31
2023-04-09T08:36:15.854Z,100862.63
2023-04-09T08:38:47.538Z,100862.63
2023-04-09T08:41:27.132Z,100862.97
2023-04-09T08:43:59.544Z,100869.00
2023-04-09T08:46:30.541Z,100867.75
2023-04-09T08:49:00.903Z,100867.09
2023-04-09T08:51:31.506Z,100864.78
2023-04-09T08:54:05.339Z,100864.34
2023-04-09T08:56:36.566Z,100869.00
2023-04-09T08:59:06.861Z,100861.91
2023-04-09T09:01:37.490Z,100855.09
2023-04-09T09:04:10.179Z,100844.31
2023-04-09T09:06:44.022Z,100849.19
2023-04-09T09:09:19.388Z,100845.94
2023-04-09T09:11:52.644Z,100838.31
2023-04-09T09:14:23.120Z,100836.72
2023-04-09T09:16:59.241Z,100845.94
2023-04-09T09:19:29.633Z,100840.63
2023-04-09T09:22:00.974Z,100850.56
2023-04-09T09:24:32.535Z,100837.38
2023-04-09T09:27:03.948Z,100837.50
2023-04-09T09:29:34.300Z,100841.53
2023-04-09T09:32:04.686Z,100840.47
2023-04-09T09:34:35.371Z,100835.97
2023-04-09T09:37:25.535Z,100837.38
2023-04-09T09:39:55.842Z,100830.78
2023-04-09T09:42:26.115Z,100831.56
2023-04-09T09:44:57.791Z,100831.81
2023-04-09T09:47:30.559Z,100825.13
2023-04-09T09:50:00.990Z,100829.63
2023-04-09T09:52:31.530Z,100826.75
2023-04-09T09:55:07.745Z,100828.59
2023-04-09T09:57:41.993Z,100824.06
2023-04-09T10:00:17.738Z,100832.03
2023-04-09T10:03:11.654Z,100839.13
2023-04-09T10:05:43.735Z,100836.00
2023-04-09T10:08:15.913Z,100835.44
2023-04-09T10:10:46.453Z,100829.19
2023-04-09T10:13:28.023Z,100839.59
2023-04-09T10:15:58.919Z,100845.84
2023-04-09T10:18:29.661Z,100853.50
2023-04-09T10:21:04.506Z,100841.19
2023-04-09T10:23:42.803Z,100841.31
2023-04-09T10:26:13.761Z,100850.13
2023-04-09T10:28:45.817Z,100853.13
2023-04-09T10:31:17.332Z,100860.78
2023-04-09T10:33:48.392Z,100862.72
2023-04-09T10:36:22.777Z,100865.75
2023-04-09T10:38:54.281Z,100882.53
2023-04-09T10:41:33.227Z,100876.06
2023-04-09T10:44:03.907Z,100881.13
2023-04-09T10:46:38.761Z,100878.16
2023-04-09T10:49:22.209Z,100886.00
2023-04-09T10:52:13.299Z,100878.72
2023-04-09T10:54:53.501Z,100875.47
2023-04-09T10:57:24.806Z,100889.94
2023-04-09T10:59:57.205Z,100886.69
2023-04-09T11:02:43.138Z,100893.19
2023-04-09T11:05:25.189Z,100897.91
2023-04-09T11:08:08.111Z,100893.19
2023-04-09T11:10:39.565Z,100892.94
2023-04-09T11:13:13.712Z,100893.63
2023-04-09T11:15:44.886Z,100893.50
2023-04-09T11:18:29.302Z,100905.44
2023-04-09T11:21:05.521Z,100895.59
2023-04-09T11:23:36.365Z,100905.56
2023-04-09T11:26:07.634Z,100916.66
2023-04-09T11:28:38.894Z,100919.81
2023-04-09T11:31:09.745Z,100918.41
2023-04-09T11:33:40.295Z,100922.13
2023-04-09T11:36:11.188Z,100933.13
2023-04-09T11:38:42.169Z,100936.63
2023-04-09T11:41:15.840Z,100929.31
2023-04-09T11:43:46.218Z,100933.03
2023-04-09T11:46:17.945Z,100938.47
2023-04-09T11:48:48.600Z,100938.66
2023-04-09T11:51:19.501Z,100942.38
2023-04-09T11:53:52.264Z,100936.47
2023-04-09T11:56:23.409Z,100938.66
2023-04-09T11:58:54.118Z,100942.47
2023-04-09T12:01:25.811Z,100937.72
2023-04-09T12:03:57.139Z,100945.59
2023-04-09T12:06:28.866Z,100950.88
2023-04-09T12:09:00.501Z,100954.13
2023-04-09T12:11:34.966Z,100967.06
2023-04-09T12:14:07.156Z,100967.16
2023-04-09T12:16:38.293Z,100975.81
2023-04-09T12:19:13.041Z,100978.13
2023-04-09T12:21:55.484Z,100987.94
2023-04-09T12:24:30.448Z,100982.72
2023-04-09T12:29:08.986Z,100982.91
2023-04-09T12:31:39.389Z,100993.72
2023-04-09T12:34:09.815Z,100997.19
2023-04-09T12:36:42.208Z,101000.78
2023-04-09T12:39:13.050Z,100997.06
2023-04-09T12:41:43.756Z,100996.63
2023-04-09T12:44:14.201Z,100999.28
2023-04-09T12:46:44.579Z,101009.34
2023-04-09T12:49:14.903Z,101009.22
2023-04-09T12:51:45.178Z,101013.63
2023-04-09T12:54:15.397Z,101008.38
2023-04-09T12:56:45.741Z,101014.16
2023-04-09T12:59:16.151Z,101016.75
2023-04-09T13:01:48.667Z,101012.72
2023-04-09T13:04:19.833Z,101016.44
2023-04-09T13:06:51.185Z,101012.72
2023-04-09T13:09:21.623Z,101007.03
2023-04-09T13:12:06.356Z,101009.19
2023-04-09T13:14:40.300Z,101019.94
2023-04-09T13:17:11.295Z,101020.78
2023-04-09T13:19:42.788Z,101025.19
2023-04-09T13:22:14.043Z,101034.94
2023-04-09T13:24:45.694Z,101040.50
2023-04-09T13:27:17.184Z,101050.13
2023-04-09T13:29:48.241Z,101051.88
2023-04-09T13:32:19.596Z,101053.03
2023-04-09T13:34:50.674Z,101052.19
2023-04-09T13:37:21.471Z,101054.31
2023-04-09T13:39:53.496Z,101058.09
2023-04-09T13:42:24.629Z,101062.84
2023-04-09T13:44:55.466Z,101063.03
2023-04-09T13:47:26.819Z,101071.16
2023-04-09T13:49:57.298Z,101071.00
2023-04-09T13:52:29.694Z,101082.44
2023-04-09T13:55:00.151Z,101083.72
2023-04-09T13:57:30.582Z,101086.00
2023-04-09T14:00:04.225Z,101088.13
2023-04-09T14:02:35.341Z,101093.03
2023-04-09T14:05:06.261Z,101097.59
2023-04-09T14:07:36.578Z,101098.91
2023-04-09T14:10:07.085Z,101094.06
2023-04-09T14:12:37.906Z,101100.25
2023-04-09T14:15:09.243Z,101107.75
2023-04-09T14:17:39.539Z,101107.91
2023-04-09T14:20:12.164Z,101105.31
2023-04-09T14:22:43.852Z,101105.47
2023-04-09T14:25:14.404Z,101101.88
2023-04-09T14:27:44.889Z,101103.94
2023-04-09T14:30:16.351Z,101106.03
2023-04-09T14:32:47.116Z,101104.09
2023-04-09T14:35:18.881Z,101109.81
2023-04-09T14:37:49.566Z,101101.31
2023-04-09T14:40:19.732Z,101104.88
2023-04-09T14:42:50.831Z,101109.50
2023-04-09T14:45:21.176Z,101112.25
2023-04-09T14:47:51.513Z,101114.03
2023-04-09T14:50:21.940Z,101114.84
2023-04-09T14:52:52.431Z,101111.75
2023-04-09T14:55:23.547Z,101108.50
2023-04-09T14:57:53.986Z,101109.28
2023-04-09T15:00:24.826Z,101114.34
2023-04-09T15:02:55.182Z,101117.59
2023-04-09T15:05:25.794Z,101128.03
2023-04-09T15:07:58.317Z,101121.88
2023-04-09T15:10:28.705Z,101120.72
2023-04-09T15:12:59.070Z,101123.66
2023-04-09T15:15:29.988Z,101119.75
2023-04-09T15:18:00.363Z,101118.94
2023-04-09T15:20:30.998Z,101125.97
2023-04-09T15:23:01.432Z,101133.47
2023-04-09T15:25:31.675Z,101137.38
2023-04-09T15:28:01.924Z,101129.22
2023-04-09T15:30:32.280Z,101117.63
2023-04-09T15:33:02.907Z,101117.97
2023-04-09T15:35:34.115Z,101135.09
2023-04-09T15:38:04.812Z,101129.41
2023-04-09T15:40:35.188Z,101133.81
2023-04-09T15:43:05.512Z,101138.53
2023-04-09T15:45:35.728Z,101143.28
2023-04-09T15:48:06.095Z,101132.19
2023-04-09T15:50:37.812Z,101140.50
2023-04-09T15:53:08.179Z,101147.34
2023-04-09T15:55:38.517Z,101145.38
2023-04-09T15:58:08.758Z,101151.59
2023-04-09T16:00:39.026Z,101157.13
2023-04-09T16:03:09.325Z,101156.00
2023-04-09T16:05:39.622Z,101162.69
2023-04-09T16:08:10.106Z,101170.50
2023-04-09T16:10:40.386Z,101171.16
2023-04-09T16:13:10.684Z,101172.31
2023-04-09T16:15:41.179Z,101175.88
2023-04-09T16:18:12.621Z,101186.16
2023-04-09T16:20:42.915Z,101179.00
2023-04-09T16:23:13.522Z,101165.13
2023-04-09T16:25:43.989Z,101163.50
2023-04-09T16:28:14.416Z,101163.50
2023-04-09T16:30:45.027Z,101161.88
2023-04-09T16:33:15.477Z,101158.78
2023-04-09T16:35:45.979Z,101157.97
2023-04-09T16:38:16.634Z,101157.97
2023-04-09T16:40:47.306Z,101158.31
2023-04-09T16:43:17.809Z,101150.78
2023-04-09T16:45:49.047Z,101150.13
2023-04-09T16:48:19.572Z,101141.31
2023-04-09T16:50:49.716Z,101140.84
2023-04-09T16:53:20.018Z,101138.06
2023-04-09T16:55:50.321Z,101132.03
2023-04-09T16:58:20.666Z,101122.56
2023-04-09T17:00:51.973Z,101113.78
2023-04-09T17:03:22.997Z,101107.09
2023-04-09T17:05:53.389Z,101108.91
2023-04-09T17:08:29.398Z,101113.31
2023-04-09T17:11:04.475Z,101108.56
2023-04-09T17:13:37.611Z,101102.22
2023-04-09T17:16:08.777Z,101107.78
2023-04-09T17:18:39.882Z,101093.09
2023-04-09T17:21:10.167Z,101096.69
2023-04-09T17:23:41.369Z,101094.88
2023-04-09T17:26:11.680Z,101093.44
2023-04-09T17:28:42.180Z,101092.59
2023-04-09T17:31:16.868Z,101089.53
2023-04-09T17:33:50.468Z,101094.22
2023-04-09T17:36:22.096Z,101089.53
2023-04-09T17:38:55.360Z,101087.56
2023-04-09T17:41:26.638Z,101095.72
2023-04-09T17:43:57.691Z,101082.34
2023-04-09T17:46:28.161Z,101087.06
2023-04-09T17:48:58.751Z,101077.47
2023-04-09T17:51:29.444Z,101082.19
2023-04-09T17:53:59.820Z,101078.25
2023-04-09T17:56:30.120Z,101069.81
2023-04-09T17:59:00.603Z,101059.53
2023-04-09T18:01:30.865Z,101058.72
2023-04-09T18:04:03.689Z,101055.94
2023-04-09T18:06:34.217Z,101063.94
2023-04-09T18:09:06.037Z,101063.13
2023-04-09T18:11:36.282Z,101055.94
2023-04-09T18:14:10.365Z,101054.31
2023-04-09T18:16:41.906Z,101046.16
2023-04-09T18:19:14.399Z,101042.56
2023-04-09T18:21:44.834Z,101038.84
2023-04-09T18:24:15.164Z,101041.78
2023-04-09T18:26:45.441Z,101028.59
2023-04-09T18:29:15.780Z,101040.47
2023-04-09T18:31:46.180Z,101031.34
2023-04-09T18:34:16.683Z,101028.91
2023-04-09T18:36:47.186Z,101034.44
2023-04-09T18:39:17.789Z,101036.41
2023-04-09T18:41:48.088Z,101037.22
2023-04-09T18:44:19.045Z,101028.25
2023-04-09T18:46:49.577Z,101023.84
2023-04-09T18:49:20.321Z,101016.19
2023-04-09T18:51:50.622Z,101011.97
2023-04-09T18:54:20.915Z,101011.47
2023-04-09T18:56:51.147Z,101011.34
2023-04-09T18:59:21.454Z,101014.09
2023-04-09T19:01:51.776Z,101003.03
2023-04-09T19:04:22.298Z,101004.16
2023-04-09T19:06:53.288Z,100997.00
2023-04-09T19:09:24.062Z,100987.53
2023-04-09T19:11:54.354Z,100988.19
2023-04-09T19:14:24.563Z,100985.91
2023-04-09T19:16:54.843Z,100982.66
2023-04-09T19:19:25.823Z,100970.75
2023-04-09T19:21:56.082Z,100981.81
2023-04-09T19:24:27.519Z,100982.66
2023-04-09T19:26:59.039Z,100977.13
2023-04-09T19:29:29.459Z,100968.47
2023-04-09T19:31:59.817Z,100974.00
2023-04-09T19:34:30.055Z,100975.13
2023-04-09T19:37:00.324Z,100975.97
2023-04-09T19:39:30.610Z,100983.78
2023-04-09T19:42:13.217Z,100986.56
2023-04-09T19:44:43.460Z,100977.91
2023-04-09T19:47:13.790Z,100986.56
2023-04-09T19:49:44.871Z,100981.03
2023-04-09T19:52:15.291Z,100975.47
2023-04-09T19:54:45.617Z,100980.19
2023-04-09T19:57:15.891Z,100975.00
2023-04-09T19:59:46.923Z,100971.44
2023-04-09T20:02:19.226Z,100974.19
2023-04-09T20:04:49.588Z,100967.84
2023-04-09T20:07:19.866Z,100958.03
2023-04-09T20:09:51.089Z,100961.63
2023-04-09T20:12:23.425Z,100965.53
2023-04-09T20:14:54.277Z,100960.66
2023-04-09T20:17:24.646Z,100974.00
2023-04-09T20:19:54.967Z,100968.97
2023-04-09T20:22:26.058Z,100971.22
2023-04-09T20:24:57.772Z,100966.03
2023-04-09T20:27:28.136Z,100964.06
2023-04-09T20:29:58.595Z,100962.44
2023-04-09T20:32:29.494Z,100952.97
2023-04-09T20:34:59.819Z,100964.41
2023-04-09T20:37:29.917Z,100966.38
2023-04-09T20:40:01.627Z,100961.63
2023-04-09T20:42:32.011Z,100955.28
2023-04-09T20:45:02.842Z,100952.84
2023-04-09T20:47:33.529Z,100959.22
2023-04-09T20:50:04.643Z,100959.22
2023-04-09T20:52:35.112Z,100957.59
2023-04-09T20:55:05.485Z,100952.84
2023-04-09T20:57:36.168Z,100947.66
2023-04-09T21:00:06.452Z,100946.81
2023-04-09T21:02:37.199Z,100945.69
2023-04-09T21:05:19.509Z,100947.16
2023-04-09T21:07:53.301Z,100943.91
2023-04-09T21:10:23.749Z,100951.41
2023-04-09T21:12:54.320Z,100956.63
2023-04-09T21:15:24.687Z,100957.41
2023-04-09T21:17:55.025Z,100963.78
2023-04-09T21:20:25.632Z,100966.56
2023-04-09T21:22:56.606Z,100976.78
2023-04-09T21:25:30.744Z,100966.56
2023-04-09T21:28:01.689Z,100967.69
2023-04-09T21:30:33.649Z,100966.72
2023-04-09T21:33:11.394Z,100976.00
2023-04-09T21:35:41.780Z,100977.16
2023-04-09T21:38:12.082Z,100975.69
2023-04-09T21:40:42.533Z,100969.84
2023-04-09T21:43:13.362Z,100976.16
2023-04-09T21:45:43.765Z,100978.63
2023-04-09T21:48:15.200Z,100981.22
2023-04-09T21:50:45.669Z,100974.53
2023-04-09T21:53:16.411Z,100982.53
2023-04-09T21:55:46.680Z,100979.94
2023-04-09T21:58:16.932Z,100986.31
2023-04-09T22:00:47.200Z,100992.78
2023-04-09T22:03:18.291Z,101002.91
2023-04-09T22:05:48.712Z,100999.31
2023-04-09T22:08:19.053Z,101002.09
2023-04-09T22:10:49.950Z,101001.13
2023-04-09T22:13:20.364Z,100998.97
2023-04-09T22:15:50.573Z,100996.41
2023-04-09T22:18:20.914Z,100998.03
2023-04-09T22:20:51.182Z,100992.97
2023-04-09T22:23:21.454Z,100997.38
2023-04-09T22:25:51.724Z,100995.41
2023-04-09T22:28:22.334Z,101007.97
2023-04-09T22:30:55.412Z,101001.94
2023-04-09T22:33:25.713Z,101017.91
2023-04-09T22:35:57.165Z,101017.06
2023-04-09T22:38:27.258Z,101016.28
2023-04-09T22:40:58.153Z,101024.25
2023-04-09T22:45:58.479Z,101025.72
2023-04-09T22:48:28.925Z,101027.66
2023-04-09T22:51:00.277Z,101031.59
2023-04-09T22:53:30.113Z,101036.31
2023-04-09T22:56:01.633Z,101041.03
2023-04-09T22:58:31.888Z,101039.59
2023-04-09T23:01:02.390Z,101043.81
2023-04-09T23:03:32.673Z,101044.47
2023-04-09T23:06:03.573Z,101042.34
2023-04-09T23:08:34.124Z,101040.25
2023-04-09T23:11:04.422Z,101044.97
2023-04-09T23:13:34.614Z,101050.81
2023-04-09T23:16:10.872Z,101052.47
2023-04-09T23:18:41.226Z,101053.59
2023-04-09T23:21:14.960Z,101059.47
2023-04-09T23:23:45.168Z,101069.22
2023-04-09T23:26:15.388Z,101075.59
2023-04-09T23:28:45.774Z,101079.16
2023-04-09T23:31:16.040Z,101088.13
2023-04-09T23:33:46.347Z,101092.03
2023-04-09T23:36:16.682Z,101089.28
2023-04-09T23:38:49.387Z,101087.31
2023-04-09T23:41:19.900Z,101090.09
2023-04-09T23:43:51.720Z,101090.41
2023-04-09T23:46:22.295Z,101093.69
2023-04-09T23:48:52.871Z,101103.44
2023-04-09T23:51:23.440Z,101109.31
2023-04-09T23:53:53.872Z,101127.06
2023-04-09T23:56:25.578Z,101130.63
2023-04-09T23:58:55.776Z,101139.25
